Alma, WV (26320)

8:39 AM EDT on April 18, 2015 (GMT -0400)
Kidwell, WV | | Change Station
CLOSE
Current Station
Personal Weather Station
Location: Sistersville, WV
Elevation: 738 ft
Nearby Weather Stations

Elev 738 ft 39.54 °N, 80.89 °W | Updated 3 minutes ago

Fog
Fog
59.9 °F
Feels Like 59.9 °F
N
0.0
Wind Variable Wind from NNE

Today
High -- | Low -- °F
--% Chance of Precip.
Yesterday
High -- | Low -- °F
Precip. -- in
6:42 AM 8:03 PM
Waning Crescent, 0% visible
Pressure 30.07 in
Visibility 0.2 miles
Clouds
Dew Point 54 °F
Humidity 81%
Rainfall 0.00 in
Snow Depth Not available.
UV Not available.
Pollen 10.90 out of 12
Air Quality Not available.
Flu Activity Sporadic
SPECI KCKB 181207Z 00000KT M1/4SM R21/1200FT FG VV001 09/09 A3007 RMK AO2 T00940094

More Conditions Fewer Conditions

Pressure 30.07 in
Visibility 0.2 miles
Clouds
Dew Point 54 °F
Humidity 81%
Rainfall 0.00 in
Snow Depth Not available.
UV Not available.
Pollen 10.90 out of 12
Air Quality Not available.
Flu Activity Sporadic
SPECI KCKB 181207Z 00000KT M1/4SM R21/1200FT FG VV001 09/09 A3007 RMK AO2 T00940094

More Conditions Fewer Conditions

10-Day Weather Forecast

Almanac

Astronomy

Apr. 18, 2015 Rise Set
Actual Time
Civil Twilight
Nautical Twilight
Astronomical Twilight
Moon
Length of Visible Light
Length of Day
Tomorrow will be .
, % of the Moon is Illuminated

Today's Extremes

State Highs State Lows

Community

WunderPhotos

Upload Photos

1,814,376 photos uploaded!

WunderBlogs® & News

Nearby

Air Quality

  Air Quality AQ Index Pollutant
Not available.

Snow Depth

Station Depth Elevation

Earthquake Activity

City Distance Mag. Time & Date
Minimum magnitude displayed is 2.5.

Coastal Water Temperatures

Place Temperature

Stations

Nearby Weather Stations

Station Location Temp. Windchill Dew Point Humidity Wind Precip. Elev Updated Type